createdAt,value
2022-11-17T00:03:17.789Z,8.8
2022-11-17T00:08:56.430Z,8.8
2022-11-17T00:14:41.245Z,9
2022-11-17T00:19:47.820Z,9
2022-11-17T00:25:25.052Z,9.1
2022-11-17T00:30:47.250Z,8.9
2022-11-17T00:41:17.003Z,8.9
2022-11-17T00:46:39.456Z,9
2022-11-17T00:51:46.852Z,8.9
2022-11-17T00:56:54.706Z,8.9
2022-11-17T01:02:17.236Z,9.1
2022-11-17T01:07:24.624Z,8.9
2022-11-17T01:12:47.050Z,9.4
2022-11-17T01:18:09.431Z,9.4
2022-11-17T01:23:47.636Z,9.6
2022-11-17T01:28:39.189Z,9.4
2022-11-17T01:33:46.423Z,9.1
2022-11-17T01:38:37.181Z,9.4
2022-11-17T01:43:59.564Z,9.1
2022-11-17T01:49:07.368Z,9.1
2022-11-17T01:54:28.307Z,9.2
2022-11-17T01:59:51.115Z,9.4
2022-11-17T02:05:14.501Z,9.3
2022-11-17T02:10:51.999Z,9.2
2022-11-17T02:16:30.063Z,9.2
2022-11-17T02:22:02.819Z,9.1
2022-11-17T02:26:40.374Z,9.3
2022-11-17T02:32:19.187Z,9.3
2022-11-17T02:37:26.329Z,9.1
2022-11-17T02:48:11.287Z,9.3
2022-11-17T02:53:37.948Z,9.5
2022-11-17T02:58:44.723Z,9.6
2022-11-17T03:09:31.849Z,9.4
2022-11-17T03:15:09.024Z,9.4
2022-11-17T03:20:46.936Z,9.6
2022-11-17T03:26:25.332Z,9.5
2022-11-17T03:32:05.442Z,9.5
2022-11-17T03:37:49.786Z,9.4
2022-11-17T03:43:27.786Z,9.4
2022-11-17T03:48:19.083Z,9.4
2022-11-17T03:53:41.919Z,9.6
2022-11-17T03:59:04.941Z,9.7
2022-11-17T04:04:42.157Z,9.4
2022-11-17T04:10:06.477Z,9.3
2022-11-17T04:15:45.958Z,9.3
2022-11-17T04:21:25.664Z,9.2
2022-11-17T04:27:04.379Z,9.3
2022-11-17T04:32:26.611Z,9.1
2022-11-17T04:38:03.830Z,9.2
2022-11-17T04:43:26.312Z,9.3
2022-11-17T04:49:05.174Z,9.2
2022-11-17T04:54:47.532Z,9.3
2022-11-17T05:00:13.050Z,9.3
2022-11-17T05:05:36.270Z,9.3
2022-11-17T05:11:13.714Z,9.2
2022-11-17T05:16:36.057Z,9.3
2022-11-17T05:22:01.570Z,9.3
2022-11-17T05:27:38.922Z,9.3
2022-11-17T05:33:16.921Z,9.3
2022-11-17T05:38:59.925Z,9.3
2022-11-17T05:44:42.661Z,9.3
2022-11-17T05:50:05.236Z,9.5
2022-11-17T05:55:16.829Z,9.5
2022-11-17T06:06:10.578Z,9.3
2022-11-17T06:11:33.753Z,9.3
2022-11-17T06:17:11.457Z,9.3
2022-11-17T06:28:28.356Z,9.5
2022-11-17T06:39:29.328Z,9.6
2022-11-17T06:45:11.625Z,9.6
2022-11-17T06:50:49.240Z,9.7
2022-11-17T06:56:34.492Z,10.3
2022-11-17T07:01:57.956Z,10.5
2022-11-17T07:07:21.497Z,10.8
2022-11-17T07:13:04.891Z,10.9
2022-11-17T07:18:28.002Z,10.9
2022-11-17T07:23:51.429Z,11.1
2022-11-17T07:29:35.554Z,11.2
2022-11-17T07:35:14.002Z,11.3
2022-11-17T07:40:52.329Z,11.4
2022-11-17T07:46:34.732Z,11.4
2022-11-17T07:52:12.937Z,11.4
2022-11-17T07:57:36.203Z,11.6
2022-11-17T08:03:21.349Z,11.8
2022-11-17T08:13:59.242Z,11.8
2022-11-17T08:19:25.828Z,11.6
2022-11-17T08:24:49.176Z,11.5
2022-11-17T08:30:12.382Z,11.9
2022-11-17T08:35:37.527Z,12.8
2022-11-17T08:41:01.010Z,13.6
2022-11-17T08:46:43.636Z,14.3
2022-11-17T08:52:07.635Z,14.5
2022-11-17T08:57:47.538Z,15
2022-11-17T09:03:26.146Z,15.1
2022-11-17T09:15:04.048Z,14.6
2022-11-17T09:20:45.620Z,15.9
2022-11-17T09:26:09.355Z,16.3
2022-11-17T09:31:34.903Z,15.8
2022-11-17T09:36:58.709Z,15
2022-11-17T09:42:23.601Z,14.9
2022-11-17T09:48:33.987Z,15.6
2022-11-17T09:54:02.605Z,15.4
2022-11-17T09:59:47.044Z,14.8
2022-11-17T10:05:31.179Z,14.7
2022-11-17T10:11:10.723Z,14.8
2022-11-17T10:16:49.003Z,15.1
2022-11-17T10:22:27.640Z,14.9
2022-11-17T10:28:05.858Z,14.8
2022-11-17T10:33:44.231Z,15.3
2022-11-17T10:39:34.378Z,15
2022-11-17T10:45:14.999Z,15.4
2022-11-17T10:51:02.347Z,15.3
2022-11-17T10:56:41.629Z,14.9
2022-11-17T11:02:19.657Z,15.1
2022-11-17T11:08:02.881Z,15.3
2022-11-17T11:13:41.127Z,14.7
2022-11-17T11:19:22.239Z,14.8
2022-11-17T11:24:44.589Z,14.9
2022-11-17T11:30:27.740Z,15.7
2022-11-17T11:36:08.142Z,15.4
2022-11-17T11:41:46.210Z,15.2
2022-11-17T11:47:29.940Z,14.9
2022-11-17T11:53:13.437Z,15
2022-11-17T11:58:39.117Z,15
2022-11-17T12:04:21.000Z,14.8
2022-11-17T12:09:59.456Z,14.7
2022-11-17T12:15:43.198Z,14.7
2022-11-17T12:21:21.561Z,14.6
2022-11-17T12:27:01.323Z,14.4
2022-11-17T12:32:39.667Z,14.3
2022-11-17T12:38:02.386Z,14.1
2022-11-17T12:43:40.936Z,13.9
2022-11-17T12:50:00.446Z,14.2
2022-11-17T12:55:39.481Z,14.4
2022-11-17T13:01:18.806Z,14.4
2022-11-17T13:07:29.499Z,14.3
2022-11-17T13:13:07.832Z,14.4
2022-11-17T13:18:50.908Z,14.6
2022-11-17T13:24:14.261Z,15.2
2022-11-17T13:29:42.598Z,15.3
2022-11-17T13:35:25.067Z,15.4
2022-11-17T13:41:09.448Z,15.4
2022-11-17T13:46:47.818Z,15.4
2022-11-17T13:52:28.646Z,15.5
2022-11-17T13:58:08.045Z,15.3
2022-11-17T14:03:48.245Z,15.2
2022-11-17T14:09:27.348Z,15
2022-11-17T14:15:06.036Z,14.9
2022-11-17T14:20:44.315Z,14.8
2022-11-17T14:26:30.030Z,14.8
2022-11-17T14:32:08.826Z,14.6
2022-11-17T14:38:00.936Z,14.5
2022-11-17T14:43:26.835Z,14.3
2022-11-17T14:49:09.792Z,14.1
2022-11-17T14:54:32.529Z,13.9
2022-11-17T14:59:40.215Z,13.8
2022-11-17T15:05:55.507Z,13.4
2022-11-17T15:11:39.567Z,13.1
2022-11-17T15:17:17.393Z,12.9
2022-11-17T15:22:40.110Z,12.7
2022-11-17T15:28:23.751Z,12.5
2022-11-17T15:33:47.343Z,12.5
2022-11-17T15:39:25.325Z,12.3
2022-11-17T15:44:56.414Z,12.3
2022-11-17T15:50:36.604Z,12.3
2022-11-17T15:56:47.151Z,12
2022-11-17T16:02:25.842Z,11.8
2022-11-17T16:07:48.698Z,11.7
2022-11-17T16:13:15.598Z,11.6
2022-11-17T16:18:53.310Z,11.7
2022-11-17T16:24:31.536Z,11.7
2022-11-17T16:29:54.034Z,11.6
2022-11-17T16:35:21.292Z,11.4
2022-11-17T16:41:31.567Z,11.4
2022-11-17T16:46:54.165Z,11.3
2022-11-17T16:52:31.618Z,11.1
2022-11-17T16:58:13.851Z,11.2
2022-11-17T17:03:36.596Z,11.1
2022-11-17T17:09:15.725Z,11
2022-11-17T17:14:38.280Z,10.9
2022-11-17T17:19:44.782Z,10.8
2022-11-17T17:25:23.451Z,10.6
2022-11-17T17:30:29.967Z,10.5
2022-11-17T17:36:10.079Z,10.5
2022-11-17T17:41:32.548Z,10.3
2022-11-17T17:47:10.374Z,10.2
2022-11-17T17:52:48.447Z,10.2
2022-11-17T17:57:55.122Z,10
2022-11-17T18:03:17.374Z,10.1
2022-11-17T18:08:57.782Z,9.9
2022-11-17T18:14:39.587Z,9.9
2022-11-17T18:20:23.244Z,9.9
2022-11-17T18:26:08.221Z,9.9
2022-11-17T18:31:46.466Z,10.1
2022-11-17T18:37:24.409Z,10.2
2022-11-17T18:43:02.426Z,10
2022-11-17T18:48:46.820Z,9.9
2022-11-17T18:54:49.099Z,9.8
2022-11-17T19:00:26.848Z,9.7
2022-11-17T19:05:49.810Z,9.9
2022-11-17T19:11:27.567Z,9.9
2022-11-17T19:17:06.101Z,9.8
2022-11-17T19:22:44.605Z,9.9
2022-11-17T19:28:08.815Z,9.9
2022-11-17T19:33:18.870Z,9.8
2022-11-17T19:39:08.417Z,9.8
2022-11-17T19:44:52.207Z,9.7
2022-11-17T19:50:29.431Z,9.4
2022-11-17T19:56:06.830Z,9.3
2022-11-17T20:01:33.892Z,9.3
2022-11-17T20:12:04.264Z,9
2022-11-17T20:17:40.421Z,8.9
2022-11-17T20:23:18.980Z,8.7
2022-11-17T20:28:46.783Z,8.6
2022-11-17T20:34:30.722Z,8.8
2022-11-17T20:40:10.141Z,8.7
2022-11-17T20:45:48.220Z,8.3
2022-11-17T20:51:10.474Z,8.2
2022-11-17T20:56:33.540Z,7.9
2022-11-17T21:02:13.225Z,7.7
2022-11-17T21:07:42.438Z,7.6
2022-11-17T21:13:20.869Z,7.4
2022-11-17T21:18:43.634Z,7.7
2022-11-17T21:24:26.873Z,7.7
2022-11-17T21:30:12.450Z,7.6
2022-11-17T21:35:40.188Z,7.5
2022-11-17T21:41:02.834Z,7.5
2022-11-17T21:46:24.912Z,7.6
2022-11-17T21:52:02.956Z,7.3
2022-11-17T21:57:40.756Z,7.2
2022-11-17T22:02:47.970Z,7.1
2022-11-17T22:08:27.224Z,7.4
2022-11-17T22:13:50.181Z,6.9
2022-11-17T22:19:26.987Z,6.7
2022-11-17T22:30:57.464Z,7.1
2022-11-17T22:36:38.766Z,6.9
2022-11-17T22:42:01.364Z,6.7
2022-11-17T22:47:46.147Z,6.4
2022-11-17T22:53:23.256Z,6.5
2022-11-17T22:59:06.319Z,6.6
2022-11-17T23:04:28.324Z,6.6
2022-11-17T23:09:54.322Z,6.8
2022-11-17T23:15:51.265Z,6.3
2022-11-17T23:26:52.161Z,6
2022-11-17T23:32:30.119Z,5.8
2022-11-17T23:38:10.708Z,5.8
2022-11-17T23:43:50.482Z,5.4
2022-11-17T23:49:28.329Z,5.1
2022-11-17T23:55:05.588Z,5.2
